createdAt,value
2018-02-13T00:00:03.237Z,101262.75
2018-02-13T00:02:32.737Z,101263.30
2018-02-13T00:05:01.629Z,101268.05
2018-02-13T00:07:30.536Z,101267.30
2018-02-13T00:24:38.352Z,101264.34
2018-02-13T00:27:07.544Z,101272.79
2018-02-13T00:29:36.537Z,101261.98
2018-02-13T00:32:05.464Z,101271.36
2018-02-13T00:34:34.279Z,101267.81
2018-02-13T00:37:03.018Z,101270.67
2018-02-13T00:39:32.352Z,101269.34
2018-02-13T00:42:00.743Z,101273.05
2018-02-13T00:44:29.515Z,101274.83
2018-02-13T00:46:58.539Z,101269.94
2018-02-13T00:49:27.515Z,101271.59
2018-02-13T00:51:56.356Z,101263.77
2018-02-13T00:54:24.835Z,101271.27
2018-02-13T00:56:53.535Z,101268.13
2018-02-13T00:59:22.515Z,101267.58
2018-02-13T01:01:51.509Z,101268.59
2018-02-13T01:04:20.753Z,101270.47
2018-02-13T01:06:49.541Z,101273.15
2018-02-13T01:09:18.521Z,101274.20
2018-02-13T01:11:47.270Z,101277.37
2018-02-13T01:17:00.868Z,101284.56
2018-02-13T01:19:29.769Z,101280.33
2018-02-13T01:21:58.612Z,101276.84
2018-02-13T01:24:27.520Z,101278.88
2018-02-13T01:26:56.392Z,101281.83
2018-02-13T01:29:25.592Z,101285.77
2018-02-13T01:31:54.807Z,101288.79
2018-02-13T01:34:24.035Z,101281.27
2018-02-13T01:36:53.740Z,101279.24
2018-02-13T01:39:22.613Z,101278.55
2018-02-13T01:41:51.968Z,101277.59
2018-02-13T01:44:21.449Z,101276.98
2018-02-13T01:46:50.480Z,101287.59
2018-02-13T01:49:19.546Z,101281.59
2018-02-13T01:51:48.529Z,101289.48
2018-02-13T01:54:17.368Z,101289.91
2018-02-13T01:56:56.607Z,101290.05
2018-02-13T01:59:25.608Z,101293.68
2018-02-13T02:01:54.592Z,101295.47
2018-02-13T02:05:50.173Z,101290.45
2018-02-13T02:08:19.293Z,101295.84
2018-02-13T02:10:48.167Z,101289.98
2018-02-13T02:13:17.043Z,101294.05
2018-02-13T02:15:46.026Z,101297.71
2018-02-13T02:18:14.777Z,101303.59
2018-02-13T02:20:43.623Z,101289.48
2018-02-13T02:23:12.574Z,101296.76
2018-02-13T02:25:41.687Z,101298.37
2018-02-13T02:28:10.663Z,101296.03
2018-02-13T02:30:39.737Z,101296.64
2018-02-13T02:33:08.742Z,101300.09
2018-02-13T02:35:38.324Z,101300.53
2018-02-13T02:38:07.715Z,101301.73
2018-02-13T02:41:02.462Z,101302.68
2018-02-13T02:43:31.700Z,101305.72
2018-02-13T02:46:00.694Z,101300.20
2018-02-13T02:48:29.749Z,101304.70
2018-02-13T02:50:58.774Z,101304.84
2018-02-13T02:53:27.788Z,101304.77
2018-02-13T02:55:56.883Z,101302.95
2018-02-13T02:58:25.860Z,101303.91
2018-02-13T03:00:54.673Z,101296.16
2018-02-13T03:03:23.654Z,101298.00
2018-02-13T03:05:52.699Z,101298.12
2018-02-13T03:08:21.846Z,101306.72
2018-02-13T03:10:50.699Z,101310.06
2018-02-13T03:13:19.712Z,101310.88
2018-02-13T03:16:45.510Z,101311.86
2018-02-13T03:19:14.717Z,101318.97
2018-02-13T03:21:43.683Z,101319.09
2018-02-13T03:24:12.749Z,101322.13
2018-02-13T03:26:41.715Z,101311.70
2018-02-13T03:29:10.740Z,101323.25
2018-02-13T03:31:39.753Z,101325.13
2018-02-13T03:34:08.736Z,101320.92
2018-02-13T03:36:38.691Z,101309.41
2018-02-13T03:39:08.777Z,101304.87
2018-02-13T03:41:37.761Z,101305.36
2018-02-13T03:44:06.877Z,101312.63
2018-02-13T03:46:35.740Z,101311.13
2018-02-13T03:49:04.694Z,101315.15
2018-02-13T03:51:33.883Z,101317.25
2018-02-13T03:54:02.890Z,101313.64
2018-02-13T03:56:32.282Z,101309.21
2018-02-13T03:59:01.660Z,101308.56
2018-02-13T04:01:31.519Z,101312.16
2018-02-13T04:06:23.639Z,101321.02
2018-02-13T04:08:52.667Z,101325.71
2018-02-13T04:11:21.724Z,101316.62
2018-02-13T04:13:50.640Z,101327.00
2018-02-13T04:16:19.675Z,101324.34
2018-02-13T04:18:48.639Z,101322.23
2018-02-13T04:21:17.726Z,101326.03
2018-02-13T04:23:46.739Z,101327.55
2018-02-13T04:26:15.643Z,101325.42
2018-02-13T04:28:44.880Z,101320.67
2018-02-13T04:31:13.787Z,101332.25
2018-02-13T04:33:42.762Z,101332.37
2018-02-13T04:36:12.481Z,101336.78
2018-02-13T04:38:41.715Z,101346.23
2018-02-13T04:41:10.921Z,101352.52
2018-02-13T04:43:39.540Z,101354.82
2018-02-13T04:46:08.708Z,101353.89
2018-02-13T04:48:37.806Z,101352.66
2018-02-13T04:51:07.197Z,101360.34
2018-02-13T04:53:35.815Z,101353.17
2018-02-13T04:56:04.708Z,101347.73
2018-02-13T04:58:33.899Z,101349.36
2018-02-13T05:01:02.814Z,101350.83
2018-02-13T05:03:31.772Z,101349.02
2018-02-13T05:06:01.236Z,101351.48
2018-02-13T05:08:30.916Z,101354.95
2018-02-13T05:12:29.707Z,101357.55
2018-02-13T05:14:58.752Z,101361.82
2018-02-13T05:17:28.240Z,101364.00
2018-02-13T05:19:57.587Z,101365.98
2018-02-13T05:22:26.920Z,101370.45
2018-02-13T05:24:55.437Z,101377.59
2018-02-13T05:29:25.532Z,101380.46
2018-02-13T05:31:54.466Z,101381.84
2018-02-13T05:34:23.533Z,101387.31
2018-02-13T05:36:52.784Z,101388.00
2018-02-13T05:39:21.749Z,101392.77
2018-02-13T05:41:51.234Z,101392.57
2018-02-13T05:44:20.772Z,101392.60
2018-02-13T05:46:50.221Z,101395.87
2018-02-13T05:49:19.544Z,101394.80
2018-02-13T05:51:48.793Z,101402.92
2018-02-13T05:54:18.181Z,101404.47
2018-02-13T05:56:47.675Z,101405.80
2018-02-13T05:59:16.888Z,101403.33
2018-02-13T06:01:46.583Z,101405.38
2018-02-13T06:04:16.388Z,101402.45
2018-02-13T06:06:45.877Z,101409.20
2018-02-13T06:09:14.817Z,101411.59
2018-02-13T06:11:43.939Z,101408.24
2018-02-13T06:14:12.670Z,101417.31
2018-02-13T06:16:41.767Z,101418.45
2018-02-13T06:21:05.462Z,101415.64
2018-02-13T06:23:34.712Z,101421.84
2018-02-13T06:26:03.788Z,101422.08
2018-02-13T06:28:32.795Z,101431.98
2018-02-13T06:31:02.187Z,101427.58
2018-02-13T06:35:48.775Z,101430.24
2018-02-13T06:38:17.821Z,101433.81
2018-02-13T06:40:46.790Z,101430.97
2018-02-13T06:43:15.816Z,101424.36
2018-02-13T06:45:45.533Z,101420.70
2018-02-13T06:48:14.739Z,101419.86
2018-02-13T06:50:43.887Z,101428.11
2018-02-13T06:53:12.807Z,101419.28
2018-02-13T06:55:42.172Z,101418.19
2018-02-13T06:58:11.720Z,101415.63
2018-02-13T07:00:40.838Z,101412.27
2018-02-13T07:03:09.900Z,101414.70
2018-02-13T07:05:38.554Z,101415.76
2018-02-13T07:08:07.747Z,101410.44
2018-02-13T07:10:36.787Z,101410.69
2018-02-13T07:13:05.772Z,101418.03
2018-02-13T07:15:34.808Z,101418.75
2018-02-13T07:18:03.992Z,101416.27
2018-02-13T07:20:32.643Z,101418.05
2018-02-13T07:23:01.903Z,101415.33
2018-02-13T07:25:30.741Z,101410.45
2018-02-13T07:27:59.788Z,101419.32
2018-02-13T07:30:29.199Z,101416.81
2018-02-13T07:32:58.547Z,101417.22
2018-02-13T07:35:27.727Z,101414.56
2018-02-13T07:37:56.778Z,101421.55
2018-02-13T07:40:26.742Z,101419.13
2018-02-13T07:42:55.711Z,101421.68
2018-02-13T07:45:24.764Z,101422.60
2018-02-13T07:47:54.216Z,101430.58
2018-02-13T07:50:23.748Z,101434.09
2018-02-13T07:52:52.801Z,101433.23
2018-02-13T07:56:07.670Z,101432.45
2018-02-13T07:58:36.698Z,101435.98
2018-02-13T08:01:05.775Z,101435.50
2018-02-13T08:03:34.611Z,101442.58
2018-02-13T08:06:03.690Z,101437.17
2018-02-13T08:08:33.496Z,101433.34
2018-02-13T08:11:02.688Z,101426.49
2018-02-13T08:13:31.737Z,101438.33
2018-02-13T08:16:00.667Z,101431.23
2018-02-13T08:18:29.634Z,101429.59
2018-02-13T08:20:58.697Z,101430.13
2018-02-13T08:23:27.846Z,101434.55
2018-02-13T08:25:56.709Z,101429.71
2018-02-13T08:28:25.622Z,101427.97
2018-02-13T08:30:54.636Z,101435.12
2018-02-13T08:33:23.675Z,101430.89
2018-02-13T08:35:52.764Z,101440.34
2018-02-13T08:38:21.655Z,101440.41
2018-02-13T08:43:18.756Z,101442.73
2018-02-13T08:45:47.650Z,101450.89
2018-02-13T08:48:16.872Z,101458.05
2018-02-13T08:50:45.651Z,101462.16
2018-02-13T08:53:43.663Z,101460.89
2018-02-13T08:56:12.858Z,101444.57
2018-02-13T08:58:41.660Z,101437.44
2018-02-13T09:01:10.590Z,101439.58
2018-02-13T09:03:40.043Z,101435.08
2018-02-13T09:06:09.621Z,101438.48
2018-02-13T09:08:38.652Z,101442.39
2018-02-13T09:11:07.749Z,101444.59
2018-02-13T09:13:36.700Z,101438.08
2018-02-13T09:16:05.615Z,101445.62
2018-02-13T09:18:34.749Z,101433.55
2018-02-13T09:21:03.767Z,101441.09
2018-02-13T09:26:26.667Z,101441.34
2018-02-13T09:28:55.721Z,101441.60
2018-02-13T09:31:24.750Z,101442.56
2018-02-13T09:33:54.050Z,101441.50
2018-02-13T09:36:23.625Z,101430.78
2018-02-13T09:38:52.738Z,101430.66
2018-02-13T09:41:21.779Z,101421.13
2018-02-13T09:43:51.425Z,101420.14
2018-02-13T09:46:20.622Z,101423.77
2018-02-13T09:48:49.693Z,101411.06
2018-02-13T09:51:18.689Z,101409.08
2018-02-13T09:53:47.713Z,101411.66
2018-02-13T09:56:16.703Z,101414.33
2018-02-13T10:01:25.708Z,101424.70
2018-02-13T10:03:56.440Z,101418.92
2018-02-13T10:06:25.705Z,101423.12
2018-02-13T10:08:54.647Z,101422.35
2018-02-13T10:11:23.650Z,101421.50
2018-02-13T10:13:52.659Z,101419.94
2018-02-13T10:16:21.647Z,101413.97
2018-02-13T10:18:50.777Z,101407.03
2018-02-13T10:21:19.699Z,101406.36
2018-02-13T10:23:48.701Z,101405.98
2018-02-13T10:26:17.704Z,101402.25
2018-02-13T10:28:46.630Z,101395.66
2018-02-13T10:31:15.647Z,101396.69
2018-02-13T10:33:44.702Z,101398.41
2018-02-13T10:36:13.684Z,101391.34
2018-02-13T10:38:42.654Z,101389.58
2018-02-13T10:41:11.970Z,101396.77
2018-02-13T10:44:59.768Z,101385.63
2018-02-13T10:47:29.901Z,101386.05
2018-02-13T10:53:59.917Z,101380.37
2018-02-13T10:57:58.714Z,101379.94
2018-02-13T11:00:33.583Z,101368.77
2018-02-13T11:03:03.403Z,101357.64
2018-02-13T11:05:32.619Z,101352.17
2018-02-13T11:08:01.703Z,101348.42
2018-02-13T11:10:30.776Z,101350.45
2018-02-13T11:12:59.790Z,101346.03
2018-02-13T11:15:28.730Z,101350.09
2018-02-13T11:17:57.799Z,101341.66
2018-02-13T11:20:26.911Z,101336.92
2018-02-13T11:22:55.649Z,101337.11
2018-02-13T11:25:24.712Z,101336.16
2018-02-13T11:27:53.748Z,101327.20
2018-02-13T11:32:42.646Z,101316.01
2018-02-13T11:36:51.695Z,101300.46
2018-02-13T11:39:21.225Z,101302.19
2018-02-13T11:41:50.763Z,101293.20
2018-02-13T11:44:19.783Z,101294.16
2018-02-13T11:48:53.545Z,101291.23
2018-02-13T11:52:37.699Z,101292.67
2018-02-13T11:55:06.756Z,101283.12
2018-02-13T11:57:36.175Z,101285.59
2018-02-13T12:01:55.703Z,101289.16
2018-02-13T12:04:25.811Z,101290.44
2018-02-13T12:06:54.792Z,101298.02
2018-02-13T12:09:23.746Z,101279.40
2018-02-13T12:11:52.927Z,101270.59
2018-02-13T12:14:21.764Z,101278.66
2018-02-13T12:16:51.557Z,101269.43
2018-02-13T12:19:20.898Z,101272.23
2018-02-13T12:21:49.528Z,101265.11
2018-02-13T12:24:19.005Z,101268.63
2018-02-13T12:26:48.317Z,101273.20
2018-02-13T12:29:17.760Z,101270.36
2018-02-13T12:31:47.438Z,101263.14
2018-02-13T12:34:16.772Z,101264.58
2018-02-13T12:36:45.723Z,101254.19
2018-02-13T12:39:14.736Z,101259.52
2018-02-13T12:41:43.867Z,101259.23
2018-02-13T12:44:13.350Z,101254.51
2018-02-13T12:46:42.810Z,101261.20
2018-02-13T12:49:11.918Z,101262.00
2018-02-13T12:53:53.747Z,101250.94
2018-02-13T12:56:22.691Z,101250.05
2018-02-13T13:01:08.735Z,101257.56
2018-02-13T13:04:20.188Z,101258.05
2018-02-13T13:06:49.898Z,101256.33
2018-02-13T13:09:18.723Z,101259.81
2018-02-13T13:11:47.975Z,101263.22
2018-02-13T13:14:16.731Z,101268.09
2018-02-13T13:16:45.826Z,101263.30
2018-02-13T13:19:15.348Z,101260.25
2018-02-13T13:23:41.754Z,101254.98
2018-02-13T13:26:10.734Z,101259.43
2018-02-13T13:28:40.199Z,101250.08
2018-02-13T13:31:09.659Z,101247.59
2018-02-13T13:33:38.717Z,101254.70
2018-02-13T13:36:07.729Z,101251.25
2018-02-13T13:38:37.204Z,101245.88
2018-02-13T13:43:21.685Z,101239.10
2018-02-13T13:45:50.813Z,101249.20
2018-02-13T13:48:20.181Z,101248.73
2018-02-13T13:50:50.734Z,101252.18
2018-02-13T13:53:19.891Z,101254.08
2018-02-13T13:55:48.589Z,101252.50
2018-02-13T13:58:17.743Z,101246.48
2018-02-13T14:00:46.818Z,101238.75
2018-02-13T14:03:15.880Z,101242.05
2018-02-13T14:05:45.159Z,101239.95
2018-02-13T14:08:14.511Z,101231.25
2018-02-13T14:10:43.762Z,101228.08
2018-02-13T14:13:13.039Z,101226.73
2018-02-13T14:15:42.750Z,101225.67
2018-02-13T14:18:12.200Z,101231.95
2018-02-13T14:20:41.853Z,101230.94
2018-02-13T14:25:09.725Z,101227.98
2018-02-13T14:27:38.670Z,101225.75
2018-02-13T14:32:54.579Z,101216.80
2018-02-13T14:35:23.678Z,101217.45
2018-02-13T14:37:52.740Z,101216.22
2018-02-13T14:41:57.648Z,101216.36
2018-02-13T14:44:26.781Z,101216.31
2018-02-13T14:48:44.306Z,101223.61
2018-02-13T14:51:13.875Z,101217.13
2018-02-13T14:53:42.855Z,101215.73
2018-02-13T14:56:11.701Z,101217.11
2018-02-13T14:58:40.755Z,101207.16
2018-02-13T15:01:09.631Z,101210.73
2018-02-13T15:03:38.706Z,101201.00
2018-02-13T15:06:07.616Z,101203.98
2018-02-13T15:08:36.675Z,101201.02
2018-02-13T15:11:05.708Z,101203.12
2018-02-13T15:13:34.713Z,101203.92
2018-02-13T15:16:03.706Z,101202.78
2018-02-13T15:20:48.678Z,101188.17
2018-02-13T15:23:17.693Z,101189.03
2018-02-13T15:25:46.652Z,101194.32
2018-02-13T15:28:15.702Z,101192.52
2018-02-13T15:30:44.720Z,101192.17
2018-02-13T15:33:13.712Z,101190.15
2018-02-13T15:35:42.696Z,101195.59
2018-02-13T15:38:11.651Z,101186.39
2018-02-13T15:40:40.639Z,101184.05
2018-02-13T15:43:09.676Z,101171.48
2018-02-13T15:45:38.623Z,101169.44
2018-02-13T15:48:07.703Z,101160.67
2018-02-13T15:50:36.696Z,101179.20
2018-02-13T15:53:05.627Z,101167.84
2018-02-13T15:55:34.670Z,101174.98
2018-02-13T15:58:03.715Z,101180.94
2018-02-13T16:00:32.905Z,101186.11
2018-02-13T16:09:51.164Z,101188.48
2018-02-13T16:12:20.469Z,101189.39
2018-02-13T16:14:49.643Z,101192.18
2018-02-13T16:17:19.419Z,101196.72
2018-02-13T16:19:49.188Z,101197.88
2018-02-13T16:22:18.835Z,101199.16
2018-02-13T16:25:57.811Z,101201.73
2018-02-13T16:33:04.464Z,101197.48
2018-02-13T16:35:33.889Z,101202.36
2018-02-13T16:38:03.026Z,101197.84
2018-02-13T16:40:31.781Z,101201.77
2018-02-13T16:43:00.901Z,101204.55
2018-02-13T16:45:29.202Z,101195.06
2018-02-13T16:47:58.652Z,101199.02
2018-02-13T16:50:27.913Z,101197.26
2018-02-13T16:52:56.726Z,101200.96
2018-02-13T16:55:26.205Z,101192.35
2018-02-13T16:57:55.749Z,101201.11
2018-02-13T17:00:25.219Z,101198.13
2018-02-13T17:02:54.799Z,101197.61
2018-02-13T17:05:24.210Z,101194.55
2018-02-13T17:07:53.816Z,101194.77
2018-02-13T17:10:22.901Z,101187.92
2018-02-13T17:12:52.060Z,101195.60
2018-02-13T17:15:21.352Z,101188.86
2018-02-13T17:17:50.834Z,101181.72
2018-02-13T17:20:20.647Z,101181.79
2018-02-13T17:22:49.878Z,101182.44
2018-02-13T17:25:19.208Z,101178.34
2018-02-13T17:27:48.759Z,101176.59
2018-02-13T17:30:21.365Z,101170.28
2018-02-13T17:32:50.864Z,101159.85
2018-02-13T17:35:20.209Z,101165.86
2018-02-13T17:37:49.611Z,101166.86
2018-02-13T17:40:18.900Z,101164.67
2018-02-13T17:42:47.236Z,101163.48
2018-02-13T17:45:15.801Z,101162.08
2018-02-13T17:47:44.973Z,101157.85
2018-02-13T17:50:13.647Z,101157.66
2018-02-13T17:52:42.894Z,101162.66
2018-02-13T17:55:12.884Z,101156.77
2018-02-13T17:57:41.843Z,101151.87
2018-02-13T18:00:11.198Z,101145.47
2018-02-13T18:02:40.546Z,101145.33
2018-02-13T18:05:09.810Z,101142.09
2018-02-13T18:07:39.215Z,101141.73
2018-02-13T18:10:08.627Z,101139.14
2018-02-13T18:12:37.887Z,101132.25
2018-02-13T18:15:06.798Z,101138.91
2018-02-13T18:17:35.933Z,101144.05
2018-02-13T18:21:48.013Z,101146.00
2018-02-13T18:24:16.634Z,101143.44
2018-02-13T18:26:46.445Z,101139.92
2018-02-13T18:33:10.917Z,101134.94
2018-02-13T18:35:39.703Z,101132.98
2018-02-13T18:38:08.739Z,101139.22
2018-02-13T18:40:37.781Z,101128.70
2018-02-13T18:43:07.321Z,101131.06
2018-02-13T18:46:44.431Z,101126.99
2018-02-13T18:49:13.687Z,101133.94
2018-02-13T18:51:43.439Z,101116.91
2018-02-13T18:54:14.192Z,101117.88
2018-02-13T18:56:43.571Z,101121.11
2018-02-13T18:59:12.891Z,101128.66
2018-02-13T19:01:41.876Z,101130.16
2018-02-13T19:04:11.358Z,101124.47
2018-02-13T19:06:40.477Z,101122.89
2018-02-13T19:09:09.511Z,101120.34
2018-02-13T19:14:54.759Z,101124.03
2018-02-13T19:17:25.719Z,101118.34
2018-02-13T19:19:54.703Z,101120.30
2018-02-13T19:22:23.674Z,101121.33
2018-02-13T19:24:52.729Z,101121.97
2018-02-13T19:27:21.683Z,101115.09
2018-02-13T19:29:50.695Z,101121.53
2018-02-13T19:32:19.751Z,101122.14
2018-02-13T19:34:48.741Z,101121.59
2018-02-13T19:37:18.073Z,101123.91
2018-02-13T19:39:47.576Z,101115.30
2018-02-13T19:42:16.871Z,101116.94
2018-02-13T19:44:45.895Z,101113.64
2018-02-13T19:47:14.218Z,101114.84
2018-02-13T19:49:43.399Z,101113.31
2018-02-13T19:52:12.532Z,101105.66
2018-02-13T19:54:41.722Z,101104.17
2018-02-13T19:57:10.746Z,101104.02
2018-02-13T19:59:39.740Z,101106.16
2018-02-13T20:02:08.758Z,101098.85
2018-02-13T20:04:37.699Z,101093.30
2018-02-13T20:07:06.897Z,101095.89
2018-02-13T20:09:35.594Z,101098.54
2018-02-13T20:12:04.637Z,101096.65
2018-02-13T20:14:33.756Z,101093.16
2018-02-13T20:17:02.795Z,101099.84
2018-02-13T20:19:31.758Z,101098.85
2018-02-13T20:22:00.771Z,101097.22
2018-02-13T20:24:29.766Z,101088.36
2018-02-13T20:26:58.731Z,101082.19
2018-02-13T20:29:27.699Z,101082.99
2018-02-13T20:31:57.330Z,101079.59
2018-02-13T20:35:59.314Z,101078.70
2018-02-13T20:42:42.723Z,101071.53
2018-02-13T20:45:11.711Z,101076.50
2018-02-13T20:47:40.771Z,101079.03
2018-02-13T20:50:09.899Z,101080.96
2018-02-13T20:52:38.908Z,101081.69
2018-02-13T20:55:07.314Z,101077.59
2018-02-13T20:57:36.867Z,101079.25
2018-02-13T21:00:06.193Z,101084.87
2018-02-13T21:02:35.430Z,101072.05
2018-02-13T21:05:04.725Z,101070.11
2018-02-13T21:07:33.797Z,101069.89
2018-02-13T21:10:02.975Z,101068.16
2018-02-13T21:12:31.554Z,101065.48
2018-02-13T21:16:21.685Z,101069.95
2018-02-13T21:18:51.208Z,101066.23
2018-02-13T21:21:20.753Z,101070.66
2018-02-13T21:23:50.399Z,101070.23
2018-02-13T21:26:59.910Z,101067.95
2018-02-13T21:29:28.689Z,101056.58
2018-02-13T21:31:57.905Z,101055.23
2018-02-13T21:34:26.702Z,101057.86
2018-02-13T21:36:56.360Z,101052.94
2018-02-13T21:39:26.358Z,101048.28
2018-02-13T21:41:56.178Z,101041.77
2018-02-13T21:44:25.349Z,101030.03
2018-02-13T21:49:30.254Z,101019.84
2018-02-13T21:52:00.202Z,101025.38
2018-02-13T21:56:35.627Z,101021.84
2018-02-13T22:01:24.817Z,101011.64
2018-02-13T22:03:54.234Z,101017.58
2018-02-13T22:06:23.740Z,101014.69
2018-02-13T22:08:53.388Z,101003.56
2018-02-13T22:11:22.709Z,100999.33
2018-02-13T22:13:53.015Z,100992.45
2018-02-13T22:16:21.820Z,100987.25
2018-02-13T22:18:50.778Z,100983.77
2018-02-13T22:21:19.839Z,100976.89
2018-02-13T22:23:49.403Z,100979.37
2018-02-13T22:26:18.720Z,100969.77
2018-02-13T22:28:47.773Z,100968.00
2018-02-13T22:31:16.759Z,100966.34
2018-02-13T22:33:45.810Z,100950.78
2018-02-13T22:36:14.797Z,100952.42
2018-02-13T22:38:43.695Z,100946.50
2018-02-13T22:41:12.743Z,100952.20
2018-02-13T22:43:41.805Z,100947.41
2018-02-13T22:46:10.786Z,100937.66
2018-02-13T22:48:39.753Z,100936.95
2018-02-13T22:51:08.744Z,100932.43
2018-02-13T22:53:37.725Z,100929.34
2018-02-13T22:56:06.708Z,100929.63
2018-02-13T22:58:35.908Z,100929.73
2018-02-13T23:01:04.435Z,100930.27
2018-02-13T23:03:33.754Z,100920.64
2018-02-13T23:06:02.909Z,100916.33
2018-02-13T23:08:31.652Z,100907.69
2018-02-13T23:11:00.732Z,100909.88
2018-02-13T23:13:29.784Z,100900.28
2018-02-13T23:15:58.711Z,100901.82
2018-02-13T23:18:27.764Z,100897.09
2018-02-13T23:20:56.793Z,100903.88
2018-02-13T23:23:25.761Z,100899.58
2018-02-13T23:25:54.770Z,100897.27
2018-02-13T23:28:24.362Z,100897.21
2018-02-13T23:30:53.708Z,100905.41
2018-02-13T23:33:22.861Z,100891.98
2018-02-13T23:35:52.376Z,100890.58
2018-02-13T23:38:21.753Z,100893.38
2018-02-13T23:40:50.711Z,100888.99
2018-02-13T23:43:19.884Z,100891.59
2018-02-13T23:45:48.314Z,100891.19
2018-02-13T23:48:17.650Z,100892.17
2018-02-13T23:50:46.788Z,100884.40
2018-02-13T23:53:15.804Z,100886.31
2018-02-13T23:55:44.771Z,100878.38
2018-02-13T23:58:14.063Z,100872.89
